sensor_id;sensor_type;location;lat;lon;timestamp;P1;durP1;ratioP1;P2;durP2;ratioP2
65279;SDS011;51878;55.748;48.742;2022-09-03T00:03:16;20.45;;;12.85;;
65279;SDS011;51878;55.748;48.742;2022-09-03T00:10:58;31.55;;;15.43;;
65279;SDS011;51878;55.748;48.742;2022-09-03T00:14:18;28.70;;;14.88;;
65279;SDS011;51878;55.748;48.742;2022-09-03T00:19:16;31.02;;;18.05;;
65279;SDS011;51878;55.748;48.742;2022-09-03T00:21:48;33.05;;;18.98;;
65279;SDS011;51878;55.748;48.742;2022-09-03T00:24:20;30.00;;;19.48;;
65279;SDS011;51878;55.748;48.742;2022-09-03T00:26:52;36.47;;;20.77;;
65279;SDS011;51878;55.748;48.742;2022-09-03T00:29:24;31.80;;;19.77;;
65279;SDS011;51878;55.748;48.742;2022-09-03T00:34:37;31.48;;;19.73;;
65279;SDS011;51878;55.748;48.742;2022-09-03T00:37:08;34.70;;;22.15;;
65279;SDS011;51878;55.748;48.742;2022-09-03T00:39:39;31.50;;;22.40;;
65279;SDS011;51878;55.748;48.742;2022-09-03T00:44:54;36.75;;;22.00;;
65279;SDS011;51878;55.748;48.742;2022-09-03T01:02:00;34.75;;;21.92;;
65279;SDS011;51878;55.748;48.742;2022-09-03T01:10:36;31.85;;;21.15;;
65279;SDS011;51878;55.748;48.742;2022-09-03T01:13:17;29.88;;;19.73;;
65279;SDS011;51878;55.748;48.742;2022-09-03T01:27:29;29.00;;;18.88;;
65279;SDS011;51878;55.748;48.742;2022-09-03T01:30:11;30.90;;;20.25;;
65279;SDS011;51878;55.748;48.742;2022-09-03T01:32:47;32.72;;;20.20;;
65279;SDS011;51878;55.748;48.742;2022-09-03T01:37:57;31.50;;;21.55;;
65279;SDS011;51878;55.748;48.742;2022-09-03T01:45:50;31.65;;;21.13;;
65279;SDS011;51878;55.748;48.742;2022-09-03T01:48:24;30.50;;;20.80;;
65279;SDS011;51878;55.748;48.742;2022-09-03T01:51:17;29.85;;;20.00;;
65279;SDS011;51878;55.748;48.742;2022-09-03T01:59:35;30.17;;;20.95;;
65279;SDS011;51878;55.748;48.742;2022-09-03T02:02:16;24.92;;;19.08;;
65279;SDS011;51878;55.748;48.742;2022-09-03T02:05:08;31.45;;;19.98;;
65279;SDS011;51878;55.748;48.742;2022-09-03T02:07:43;31.40;;;21.00;;
65279;SDS011;51878;55.748;48.742;2022-09-03T02:10:14;33.92;;;19.83;;
65279;SDS011;51878;55.748;48.742;2022-09-03T02:12:48;30.08;;;19.38;;
65279;SDS011;51878;55.748;48.742;2022-09-03T02:15:21;28.77;;;19.50;;
65279;SDS011;51878;55.748;48.742;2022-09-03T02:17:52;31.90;;;18.88;;
65279;SDS011;51878;55.748;48.742;2022-09-03T02:20:26;32.53;;;20.45;;
65279;SDS011;51878;55.748;48.742;2022-09-03T02:22:55;29.48;;;19.63;;
65279;SDS011;51878;55.748;48.742;2022-09-03T02:25:28;30.65;;;19.73;;
65279;SDS011;51878;55.748;48.742;2022-09-03T02:27:58;30.10;;;18.95;;
65279;SDS011;51878;55.748;48.742;2022-09-03T02:30:26;31.13;;;19.17;;
65279;SDS011;51878;55.748;48.742;2022-09-03T02:32:53;27.88;;;19.33;;
65279;SDS011;51878;55.748;48.742;2022-09-03T02:35:20;30.50;;;18.63;;
65279;SDS011;51878;55.748;48.742;2022-09-03T02:37:48;22.15;;;16.98;;
65279;SDS011;51878;55.748;48.742;2022-09-03T02:40:16;27.92;;;18.33;;
65279;SDS011;51878;55.748;48.742;2022-09-03T02:42:43;28.38;;;17.67;;
65279;SDS011;51878;55.748;48.742;2022-09-03T02:45:15;27.67;;;17.58;;
65279;SDS011;51878;55.748;48.742;2022-09-03T02:47:55;25.23;;;17.55;;
65279;SDS011;51878;55.748;48.742;2022-09-03T02:50:25;29.67;;;17.73;;
65279;SDS011;51878;55.748;48.742;2022-09-03T02:52:52;30.20;;;17.48;;
65279;SDS011;51878;55.748;48.742;2022-09-03T02:55:20;23.25;;;17.23;;
65279;SDS011;51878;55.748;48.742;2022-09-03T02:57:47;24.25;;;17.52;;
65279;SDS011;51878;55.748;48.742;2022-09-03T03:00:14;27.30;;;17.05;;
65279;SDS011;51878;55.748;48.742;2022-09-03T03:02:41;30.33;;;18.10;;
65279;SDS011;51878;55.748;48.742;2022-09-03T03:05:09;22.90;;;16.65;;
65279;SDS011;51878;55.748;48.742;2022-09-03T03:07:44;24.55;;;16.38;;
65279;SDS011;51878;55.748;48.742;2022-09-03T03:10:11;23.80;;;17.00;;
65279;SDS011;51878;55.748;48.742;2022-09-03T03:12:38;27.27;;;17.30;;
65279;SDS011;51878;55.748;48.742;2022-09-03T03:15:05;27.88;;;16.08;;
65279;SDS011;51878;55.748;48.742;2022-09-03T03:17:32;23.33;;;15.93;;
65279;SDS011;51878;55.748;48.742;2022-09-03T03:19:59;21.50;;;15.95;;
65279;SDS011;51878;55.748;48.742;2022-09-03T03:22:28;23.98;;;16.10;;
65279;SDS011;51878;55.748;48.742;2022-09-03T03:24:55;20.77;;;15.93;;
65279;SDS011;51878;55.748;48.742;2022-09-03T03:27:23;22.67;;;15.90;;
65279;SDS011;51878;55.748;48.742;2022-09-03T03:29:50;19.45;;;15.00;;
65279;SDS011;51878;55.748;48.742;2022-09-03T03:32:17;26.08;;;15.93;;
65279;SDS011;51878;55.748;48.742;2022-09-03T03:34:44;21.10;;;14.52;;
65279;SDS011;51878;55.748;48.742;2022-09-03T03:37:11;19.30;;;14.77;;
65279;SDS011;51878;55.748;48.742;2022-09-03T03:39:39;18.42;;;13.80;;
65279;SDS011;51878;55.748;48.742;2022-09-03T03:42:06;26.45;;;14.35;;
65279;SDS011;51878;55.748;48.742;2022-09-03T03:44:33;19.13;;;13.80;;
65279;SDS011;51878;55.748;48.742;2022-09-03T03:47:01;20.67;;;13.82;;
65279;SDS011;51878;55.748;48.742;2022-09-03T03:49:28;20.63;;;13.38;;
65279;SDS011;51878;55.748;48.742;2022-09-03T03:51:55;19.40;;;13.13;;
65279;SDS011;51878;55.748;48.742;2022-09-03T03:54:22;18.23;;;12.38;;
65279;SDS011;51878;55.748;48.742;2022-09-03T03:56:49;18.45;;;12.75;;
65279;SDS011;51878;55.748;48.742;2022-09-03T03:59:21;17.70;;;12.77;;
65279;SDS011;51878;55.748;48.742;2022-09-03T04:01:48;17.27;;;11.95;;
65279;SDS011;51878;55.748;48.742;2022-09-03T04:04:16;21.50;;;12.98;;
65279;SDS011;51878;55.748;48.742;2022-09-03T04:06:43;18.02;;;12.07;;
65279;SDS011;51878;55.748;48.742;2022-09-03T04:09:10;18.55;;;11.43;;
65279;SDS011;51878;55.748;48.742;2022-09-03T04:11:37;15.30;;;11.48;;
65279;SDS011;51878;55.748;48.742;2022-09-03T04:16:52;15.90;;;11.02;;
65279;SDS011;51878;55.748;48.742;2022-09-03T04:19:19;13.50;;;10.13;;
65279;SDS011;51878;55.748;48.742;2022-09-03T04:21:46;16.83;;;10.50;;
65279;SDS011;51878;55.748;48.742;2022-09-03T04:24:13;21.67;;;10.68;;
65279;SDS011;51878;55.748;48.742;2022-09-03T04:26:40;18.88;;;10.30;;
65279;SDS011;51878;55.748;48.742;2022-09-03T04:29:08;14.32;;;9.70;;
65279;SDS011;51878;55.748;48.742;2022-09-03T04:31:36;16.88;;;10.50;;
65279;SDS011;51878;55.748;48.742;2022-09-03T04:34:04;14.57;;;9.43;;
65279;SDS011;51878;55.748;48.742;2022-09-03T04:36:35;12.65;;;8.57;;
65279;SDS011;51878;55.748;48.742;2022-09-03T04:39:03;10.27;;;8.55;;
65279;SDS011;51878;55.748;48.742;2022-09-03T04:41:30;9.23;;;7.30;;
65279;SDS011;51878;55.748;48.742;2022-09-03T04:43:57;14.65;;;7.20;;
65279;SDS011;51878;55.748;48.742;2022-09-03T04:46:26;12.75;;;6.90;;
65279;SDS011;51878;55.748;48.742;2022-09-03T04:48:59;8.90;;;6.40;;
65279;SDS011;51878;55.748;48.742;2022-09-03T04:51:27;9.43;;;6.78;;
65279;SDS011;51878;55.748;48.742;2022-09-03T04:53:58;9.95;;;6.47;;
65279;SDS011;51878;55.748;48.742;2022-09-03T04:56:28;8.65;;;6.47;;
65279;SDS011;51878;55.748;48.742;2022-09-03T04:58:58;8.20;;;6.30;;
65279;SDS011;51878;55.748;48.742;2022-09-03T05:01:30;10.20;;;6.55;;
65279;SDS011;51878;55.748;48.742;2022-09-03T05:03:59;13.93;;;5.95;;
65279;SDS011;51878;55.748;48.742;2022-09-03T05:06:28;9.02;;;6.13;;
65279;SDS011;51878;55.748;48.742;2022-09-03T05:08:57;8.10;;;6.18;;
65279;SDS011;51878;55.748;48.742;2022-09-03T05:11:24;8.95;;;5.65;;
65279;SDS011;51878;55.748;48.742;2022-09-03T05:13:53;8.95;;;4.78;;
65279;SDS011;51878;55.748;48.742;2022-09-03T05:16:22;10.32;;;5.35;;
65279;SDS011;51878;55.748;48.742;2022-09-03T05:18:52;8.95;;;5.68;;
65279;SDS011;51878;55.748;48.742;2022-09-03T05:21:20;12.02;;;5.18;;
65279;SDS011;51878;55.748;48.742;2022-09-03T05:23:49;6.15;;;5.05;;
65279;SDS011;51878;55.748;48.742;2022-09-03T05:26:20;7.35;;;4.95;;
65279;SDS011;51878;55.748;48.742;2022-09-03T05:28:55;7.30;;;5.03;;
65279;SDS011;51878;55.748;48.742;2022-09-03T05:31:25;7.88;;;5.03;;
65279;SDS011;51878;55.748;48.742;2022-09-03T05:33:56;10.75;;;5.85;;
65279;SDS011;51878;55.748;48.742;2022-09-03T05:36:27;14.93;;;6.47;;
65279;SDS011;51878;55.748;48.742;2022-09-03T05:38:56;8.73;;;6.90;;
65279;SDS011;51878;55.748;48.742;2022-09-03T05:41:25;9.38;;;6.45;;
65279;SDS011;51878;55.748;48.742;2022-09-03T05:43:54;8.98;;;6.03;;
65279;SDS011;51878;55.748;48.742;2022-09-03T05:46:26;9.10;;;5.90;;
65279;SDS011;51878;55.748;48.742;2022-09-03T05:49:01;7.72;;;5.72;;
65279;SDS011;51878;55.748;48.742;2022-09-03T05:51:30;13.70;;;6.13;;
65279;SDS011;51878;55.748;48.742;2022-09-03T05:53:59;9.18;;;6.30;;
65279;SDS011;51878;55.748;48.742;2022-09-03T05:56:28;8.77;;;5.93;;
65279;SDS011;51878;55.748;48.742;2022-09-03T05:58:58;12.38;;;5.95;;
65279;SDS011;51878;55.748;48.742;2022-09-03T06:01:28;11.02;;;6.03;;
65279;SDS011;51878;55.748;48.742;2022-09-03T06:06:25;7.68;;;5.25;;
65279;SDS011;51878;55.748;48.742;2022-09-03T06:08:54;7.55;;;5.30;;
65279;SDS011;51878;55.748;48.742;2022-09-03T06:11:25;8.63;;;5.47;;
65279;SDS011;51878;55.748;48.742;2022-09-03T06:13:54;10.43;;;5.07;;
65279;SDS011;51878;55.748;48.742;2022-09-03T06:16:23;6.15;;;4.93;;
65279;SDS011;51878;55.748;48.742;2022-09-03T06:18:54;6.75;;;5.45;;
65279;SDS011;51878;55.748;48.742;2022-09-03T06:21:22;9.48;;;5.60;;
65279;SDS011;51878;55.748;48.742;2022-09-03T06:23:50;7.53;;;5.07;;
65279;SDS011;51878;55.748;48.742;2022-09-03T06:26:19;5.18;;;4.55;;
65279;SDS011;51878;55.748;48.742;2022-09-03T06:28:46;7.22;;;5.05;;
65279;SDS011;51878;55.748;48.742;2022-09-03T06:31:16;7.05;;;4.68;;
65279;SDS011;51878;55.748;48.742;2022-09-03T06:33:45;10.43;;;5.47;;
65279;SDS011;51878;55.748;48.742;2022-09-03T06:36:14;5.78;;;4.57;;
65279;SDS011;51878;55.748;48.742;2022-09-03T06:38:44;7.63;;;4.38;;
65279;SDS011;51878;55.748;48.742;2022-09-03T06:41:13;7.25;;;4.60;;
65279;SDS011;51878;55.748;48.742;2022-09-03T06:43:52;6.63;;;4.75;;
65279;SDS011;51878;55.748;48.742;2022-09-03T06:46:22;6.15;;;4.53;;
65279;SDS011;51878;55.748;48.742;2022-09-03T06:48:50;8.00;;;4.15;;
65279;SDS011;51878;55.748;48.742;2022-09-03T06:51:19;9.40;;;4.05;;
65279;SDS011;51878;55.748;48.742;2022-09-03T06:53:51;7.68;;;4.07;;
65279;SDS011;51878;55.748;48.742;2022-09-03T06:56:21;5.85;;;3.90;;
65279;SDS011;51878;55.748;48.742;2022-09-03T06:58:56;6.47;;;4.10;;
65279;SDS011;51878;55.748;48.742;2022-09-03T07:01:28;7.13;;;3.83;;
65279;SDS011;51878;55.748;48.742;2022-09-03T07:04:03;7.88;;;3.55;;
65279;SDS011;51878;55.748;48.742;2022-09-03T07:06:32;4.13;;;3.05;;
65279;SDS011;51878;55.748;48.742;2022-09-03T07:09:07;6.32;;;3.05;;
65279;SDS011;51878;55.748;48.742;2022-09-03T07:11:36;5.90;;;3.40;;
65279;SDS011;51878;55.748;48.742;2022-09-03T07:14:05;4.38;;;3.00;;
65279;SDS011;51878;55.748;48.742;2022-09-03T07:16:34;4.88;;;3.30;;
65279;SDS011;51878;55.748;48.742;2022-09-03T07:19:05;5.43;;;3.17;;
65279;SDS011;51878;55.748;48.742;2022-09-03T07:21:35;5.95;;;2.92;;
65279;SDS011;51878;55.748;48.742;2022-09-03T07:24:03;6.75;;;3.60;;
65279;SDS011;51878;55.748;48.742;2022-09-03T07:26:32;3.70;;;2.65;;
65279;SDS011;51878;55.748;48.742;2022-09-03T07:29:01;3.90;;;2.78;;
65279;SDS011;51878;55.748;48.742;2022-09-03T07:34:00;4.68;;;3.00;;
65279;SDS011;51878;55.748;48.742;2022-09-03T07:36:35;4.18;;;3.05;;
65279;SDS011;51878;55.748;48.742;2022-09-03T07:39:12;4.63;;;2.65;;
65279;SDS011;51878;55.748;48.742;2022-09-03T07:41:40;3.65;;;2.75;;
65279;SDS011;51878;55.748;48.742;2022-09-03T07:44:17;5.03;;;2.60;;
65279;SDS011;51878;55.748;48.742;2022-09-03T07:46:45;5.35;;;2.80;;
65279;SDS011;51878;55.748;48.742;2022-09-03T07:49:13;5.47;;;2.88;;
65279;SDS011;51878;55.748;48.742;2022-09-03T07:51:40;4.63;;;2.70;;
65279;SDS011;51878;55.748;48.742;2022-09-03T07:54:08;2.83;;;2.25;;
65279;SDS011;51878;55.748;48.742;2022-09-03T07:56:37;4.03;;;2.70;;
65279;SDS011;51878;55.748;48.742;2022-09-03T07:59:05;3.22;;;2.53;;
65279;SDS011;51878;55.748;48.742;2022-09-03T08:01:33;5.47;;;2.80;;
65279;SDS011;51878;55.748;48.742;2022-09-03T08:04:04;5.10;;;2.70;;
65279;SDS011;51878;55.748;48.742;2022-09-03T08:06:32;3.55;;;2.63;;
65279;SDS011;51878;55.748;48.742;2022-09-03T08:09:04;3.50;;;2.35;;
65279;SDS011;51878;55.748;48.742;2022-09-03T08:11:36;5.20;;;2.25;;
65279;SDS011;51878;55.748;48.742;2022-09-03T08:14:06;3.60;;;2.35;;
65279;SDS011;51878;55.748;48.742;2022-09-03T08:16:52;5.70;;;2.58;;
65279;SDS011;51878;55.748;48.742;2022-09-03T08:19:20;4.40;;;2.30;;
65279;SDS011;51878;55.748;48.742;2022-09-03T08:21:48;4.25;;;2.38;;
65279;SDS011;51878;55.748;48.742;2022-09-03T08:24:16;3.35;;;2.60;;
65279;SDS011;51878;55.748;48.742;2022-09-03T08:26:44;4.28;;;2.70;;
65279;SDS011;51878;55.748;48.742;2022-09-03T08:29:17;4.57;;;2.35;;
65279;SDS011;51878;55.748;48.742;2022-09-03T08:31:47;6.97;;;2.53;;
65279;SDS011;51878;55.748;48.742;2022-09-03T08:34:14;3.90;;;2.40;;
65279;SDS011;51878;55.748;48.742;2022-09-03T08:36:43;3.13;;;2.40;;
65279;SDS011;51878;55.748;48.742;2022-09-03T08:39:12;3.35;;;2.10;;
65279;SDS011;51878;55.748;48.742;2022-09-03T08:47:06;3.15;;;2.03;;
65279;SDS011;51878;55.748;48.742;2022-09-03T08:52:14;3.35;;;2.33;;
65279;SDS011;51878;55.748;48.742;2022-09-03T08:55:54;3.67;;;2.03;;
65279;SDS011;51878;55.748;48.742;2022-09-03T08:58:07;1.92;;;1.70;;
65279;SDS011;51878;55.748;48.742;2022-09-03T09:15:13;3.70;;;1.77;;
65279;SDS011;51878;55.748;48.742;2022-09-03T09:20:58;2.65;;;1.77;;
65279;SDS011;51878;55.748;48.742;2022-09-03T09:23:45;5.25;;;2.35;;
65279;SDS011;51878;55.748;48.742;2022-09-03T09:26:17;2.03;;;1.60;;
65279;SDS011;51878;55.748;48.742;2022-09-03T09:28:59;3.83;;;2.87;;
65279;SDS011;51878;55.748;48.742;2022-09-03T09:31:31;2.83;;;1.80;;
65279;SDS011;51878;55.748;48.742;2022-09-03T09:34:05;2.80;;;1.95;;
65279;SDS011;51878;55.748;48.742;2022-09-03T09:36:47;2.13;;;1.75;;
65279;SDS011;51878;55.748;48.742;2022-09-03T09:39:17;4.10;;;1.90;;
65279;SDS011;51878;55.748;48.742;2022-09-03T09:44:31;8.13;;;2.05;;
65279;SDS011;51878;55.748;48.742;2022-09-03T09:47:09;4.18;;;1.83;;
65279;SDS011;51878;55.748;48.742;2022-09-03T09:49:50;2.03;;;1.80;;
65279;SDS011;51878;55.748;48.742;2022-09-03T09:52:19;4.57;;;1.65;;
65279;SDS011;51878;55.748;48.742;2022-09-03T09:54:52;3.30;;;1.58;;
65279;SDS011;51878;55.748;48.742;2022-09-03T09:57:33;3.10;;;1.73;;
65279;SDS011;51878;55.748;48.742;2022-09-03T10:00:07;5.90;;;1.75;;
65279;SDS011;51878;55.748;48.742;2022-09-03T10:02:39;1.98;;;1.77;;
65279;SDS011;51878;55.748;48.742;2022-09-03T10:05:20;2.58;;;1.58;;
65279;SDS011;51878;55.748;48.742;2022-09-03T10:10:46;2.28;;;1.63;;
65279;SDS011;51878;55.748;48.742;2022-09-03T10:13:19;2.55;;;1.85;;
65279;SDS011;51878;55.748;48.742;2022-09-03T10:16:02;1.70;;;1.60;;
65279;SDS011;51878;55.748;48.742;2022-09-03T10:18:40;4.03;;;1.58;;
65279;SDS011;51878;55.748;48.742;2022-09-03T10:21:12;1.55;;;1.45;;
65279;SDS011;51878;55.748;48.742;2022-09-03T10:26:42;3.75;;;1.67;;
65279;SDS011;51878;55.748;48.742;2022-09-03T10:29:14;2.58;;;2.00;;
65279;SDS011;51878;55.748;48.742;2022-09-03T10:42:41;1.83;;;1.67;;
65279;SDS011;51878;55.748;48.742;2022-09-03T10:51:03;7.68;;;1.73;;
65279;SDS011;51878;55.748;48.742;2022-09-03T10:56:24;2.90;;;1.70;;
65279;SDS011;51878;55.748;48.742;2022-09-03T11:07:24;2.05;;;1.60;;
65279;SDS011;51878;55.748;48.742;2022-09-03T11:12:39;1.50;;;1.40;;
65279;SDS011;51878;55.748;48.742;2022-09-03T11:17:53;1.80;;;1.70;;
65279;SDS011;51878;55.748;48.742;2022-09-03T11:20:25;1.70;;;1.60;;
65279;SDS011;51878;55.748;48.742;2022-09-03T11:22:56;2.08;;;1.80;;
65279;SDS011;51878;55.748;48.742;2022-09-03T11:30:52;1.90;;;1.60;;
65279;SDS011;51878;55.748;48.742;2022-09-03T11:33:45;3.17;;;2.03;;
65279;SDS011;51878;55.748;48.742;2022-09-03T11:36:32;3.22;;;1.88;;
65279;SDS011;51878;55.748;48.742;2022-09-03T11:39:12;5.40;;;2.08;;
65279;SDS011;51878;55.748;48.742;2022-09-03T11:41:55;5.63;;;1.77;;
65279;SDS011;51878;55.748;48.742;2022-09-03T11:44:36;1.65;;;1.55;;
65279;SDS011;51878;55.748;48.742;2022-09-03T11:47:23;2.20;;;1.80;;
65279;SDS011;51878;55.748;48.742;2022-09-03T11:50:04;2.20;;;1.80;;
65279;SDS011;51878;55.748;48.742;2022-09-03T11:52:34;1.98;;;1.77;;
65279;SDS011;51878;55.748;48.742;2022-09-03T11:55:06;5.72;;;1.90;;
65279;SDS011;51878;55.748;48.742;2022-09-03T11:57:38;3.72;;;1.70;;
65279;SDS011;51878;55.748;48.742;2022-09-03T12:00:10;4.97;;;1.70;;
65279;SDS011;51878;55.748;48.742;2022-09-03T12:02:48;2.30;;;1.83;;
65279;SDS011;51878;55.748;48.742;2022-09-03T12:17:03;2.00;;;1.40;;
65279;SDS011;51878;55.748;48.742;2022-09-03T12:22:21;1.70;;;1.60;;
65279;SDS011;51878;55.748;48.742;2022-09-03T12:24:49;2.85;;;1.50;;
65279;SDS011;51878;55.748;48.742;2022-09-03T12:27:18;4.22;;;1.42;;
65279;SDS011;51878;55.748;48.742;2022-09-03T12:32:30;1.92;;;1.83;;
65279;SDS011;51878;55.748;48.742;2022-09-03T12:35:09;1.67;;;1.58;;
65279;SDS011;51878;55.748;48.742;2022-09-03T12:37:38;2.00;;;1.65;;
65279;SDS011;51878;55.748;48.742;2022-09-03T12:40:28;1.98;;;1.60;;
65279;SDS011;51878;55.748;48.742;2022-09-03T12:43:13;2.67;;;1.60;;
65279;SDS011;51878;55.748;48.742;2022-09-03T12:46:01;1.67;;;1.58;;
65279;SDS011;51878;55.748;48.742;2022-09-03T12:51:05;2.50;;;1.90;;
65279;SDS011;51878;55.748;48.742;2022-09-03T12:53:53;1.90;;;1.63;;
65279;SDS011;51878;55.748;48.742;2022-09-03T12:56:20;1.90;;;1.70;;
65279;SDS011;51878;55.748;48.742;2022-09-03T12:59:11;3.45;;;2.13;;
65279;SDS011;51878;55.748;48.742;2022-09-03T13:01:45;3.90;;;1.83;;
65279;SDS011;51878;55.748;48.742;2022-09-03T13:04:22;2.45;;;1.70;;
65279;SDS011;51878;55.748;48.742;2022-09-03T13:06:55;3.03;;;1.63;;
65279;SDS011;51878;55.748;48.742;2022-09-03T13:09:29;3.00;;;1.80;;
65279;SDS011;51878;55.748;48.742;2022-09-03T13:12:00;2.88;;;2.08;;
65279;SDS011;51878;55.748;48.742;2022-09-03T13:14:43;5.38;;;1.83;;
65279;SDS011;51878;55.748;48.742;2022-09-03T13:17:29;3.85;;;1.92;;
65279;SDS011;51878;55.748;48.742;2022-09-03T13:28:32;4.50;;;1.50;;
65279;SDS011;51878;55.748;48.742;2022-09-03T13:33:40;7.35;;;1.92;;
65279;SDS011;51878;55.748;48.742;2022-09-03T13:36:18;3.30;;;2.08;;
65279;SDS011;51878;55.748;48.742;2022-09-03T13:44:13;3.60;;;1.80;;
65279;SDS011;51878;55.748;48.742;2022-09-03T13:46:47;4.95;;;1.85;;
65279;SDS011;51878;55.748;48.742;2022-09-03T13:52:39;9.27;;;2.35;;
65279;SDS011;51878;55.748;48.742;2022-09-03T13:55:18;2.88;;;1.90;;
65279;SDS011;51878;55.748;48.742;2022-09-03T13:57:53;6.70;;;1.75;;
65279;SDS011;51878;55.748;48.742;2022-09-03T14:03:17;2.08;;;1.48;;
65279;SDS011;51878;55.748;48.742;2022-09-03T14:06:01;1.98;;;1.38;;
65279;SDS011;51878;55.748;48.742;2022-09-03T14:24:44;3.92;;;1.40;;
65279;SDS011;51878;55.748;48.742;2022-09-03T14:27:26;2.30;;;1.40;;
65279;SDS011;51878;55.748;48.742;2022-09-03T14:30:05;3.50;;;1.60;;
65279;SDS011;51878;55.748;48.742;2022-09-03T14:33:00;2.22;;;1.33;;
65279;SDS011;51878;55.748;48.742;2022-09-03T14:35:34;2.90;;;2.20;;
65279;SDS011;51878;55.748;48.742;2022-09-03T14:38:23;3.33;;;1.98;;
65279;SDS011;51878;55.748;48.742;2022-09-03T14:46:31;1.70;;;1.60;;
65279;SDS011;51878;55.748;48.742;2022-09-03T14:51:35;4.95;;;2.00;;
65279;SDS011;51878;55.748;48.742;2022-09-03T15:00:13;2.00;;;1.48;;
65279;SDS011;51878;55.748;48.742;2022-09-03T15:07:52;1.30;;;1.20;;
65279;SDS011;51878;55.748;48.742;2022-09-03T15:10:47;2.30;;;1.30;;
65279;SDS011;51878;55.748;48.742;2022-09-03T15:16:11;2.90;;;1.30;;
65279;SDS011;51878;55.748;48.742;2022-09-03T15:19:05;2.13;;;1.50;;
65279;SDS011;51878;55.748;48.742;2022-09-03T15:21:55;4.55;;;1.40;;
65279;SDS011;51878;55.748;48.742;2022-09-03T15:35:28;7.22;;;1.63;;
65279;SDS011;51878;55.748;48.742;2022-09-03T15:38:02;3.10;;;1.63;;
65279;SDS011;51878;55.748;48.742;2022-09-03T15:46:03;1.75;;;1.60;;
65279;SDS011;51878;55.748;48.742;2022-09-03T15:51:20;2.47;;;1.85;;
65279;SDS011;51878;55.748;48.742;2022-09-03T15:54:01;2.72;;;1.63;;
65279;SDS011;51878;55.748;48.742;2022-09-03T15:56:34;1.77;;;1.65;;
65279;SDS011;51878;55.748;48.742;2022-09-03T16:15:32;5.50;;;1.85;;
65279;SDS011;51878;55.748;48.742;2022-09-03T16:26:30;3.10;;;2.17;;
65279;SDS011;51878;55.748;48.742;2022-09-03T16:37:20;4.43;;;2.33;;
65279;SDS011;51878;55.748;48.742;2022-09-03T16:39:54;7.72;;;2.65;;
65279;SDS011;51878;55.748;48.742;2022-09-03T16:42:51;5.65;;;2.38;;
65279;SDS011;51878;55.748;48.742;2022-09-03T16:46:02;3.40;;;2.20;;
65279;SDS011;51878;55.748;48.742;2022-09-03T16:48:56;7.45;;;2.58;;
65279;SDS011;51878;55.748;48.742;2022-09-03T16:51:46;3.80;;;2.38;;
65279;SDS011;51878;55.748;48.742;2022-09-03T17:00:27;5.72;;;2.40;;
65279;SDS011;51878;55.748;48.742;2022-09-03T17:08:40;2.70;;;1.90;;
65279;SDS011;51878;55.748;48.742;2022-09-03T17:11:17;4.95;;;2.00;;
65279;SDS011;51878;55.748;48.742;2022-09-03T17:14:10;4.47;;;2.15;;
65279;SDS011;51878;55.748;48.742;2022-09-03T17:19:32;12.13;;;2.70;;
65279;SDS011;51878;55.748;48.742;2022-09-03T17:22:16;4.80;;;2.47;;
65279;SDS011;51878;55.748;48.742;2022-09-03T17:24:58;3.15;;;2.53;;
65279;SDS011;51878;55.748;48.742;2022-09-03T17:30:09;3.50;;;2.50;;
65279;SDS011;51878;55.748;48.742;2022-09-03T17:50:07;9.60;;;2.92;;
65279;SDS011;51878;55.748;48.742;2022-09-03T17:55:50;9.48;;;3.03;;
65279;SDS011;51878;55.748;48.742;2022-09-03T18:08:50;4.63;;;2.30;;
65279;SDS011;51878;55.748;48.742;2022-09-03T18:11:34;3.60;;;2.03;;
65279;SDS011;51878;55.748;48.742;2022-09-03T18:17:00;11.02;;;2.00;;
65279;SDS011;51878;55.748;48.742;2022-09-03T18:22:25;7.30;;;2.00;;
65279;SDS011;51878;55.748;48.742;2022-09-03T18:25:17;3.67;;;2.08;;
65279;SDS011;51878;55.748;48.742;2022-09-03T18:28:08;6.18;;;1.70;;
65279;SDS011;51878;55.748;48.742;2022-09-03T18:30:58;3.45;;;1.80;;
65279;SDS011;51878;55.748;48.742;2022-09-03T18:33:43;2.65;;;1.70;;
65279;SDS011;51878;55.748;48.742;2022-09-03T18:36:30;4.35;;;1.92;;
65279;SDS011;51878;55.748;48.742;2022-09-03T18:39:25;4.25;;;2.03;;
65279;SDS011;51878;55.748;48.742;2022-09-03T18:42:28;2.38;;;1.85;;
65279;SDS011;51878;55.748;48.742;2022-09-03T18:55:37;3.30;;;2.05;;
65279;SDS011;51878;55.748;48.742;2022-09-03T19:01:38;6.25;;;2.10;;
65279;SDS011;51878;55.748;48.742;2022-09-03T19:10:53;5.75;;;2.20;;
65279;SDS011;51878;55.748;48.742;2022-09-03T19:13:45;3.03;;;2.13;;
65279;SDS011;51878;55.748;48.742;2022-09-03T19:16:53;5.20;;;2.03;;
65279;SDS011;51878;55.748;48.742;2022-09-03T19:19:59;4.07;;;1.88;;
65279;SDS011;51878;55.748;48.742;2022-09-03T19:23:05;2.35;;;2.10;;
65279;SDS011;51878;55.748;48.742;2022-09-03T19:25:51;3.00;;;2.22;;
65279;SDS011;51878;55.748;48.742;2022-09-03T19:28:42;4.28;;;1.85;;
65279;SDS011;51878;55.748;48.742;2022-09-03T19:52:38;2.03;;;1.67;;
65279;SDS011;51878;55.748;48.742;2022-09-03T19:55:34;1.85;;;1.40;;
65279;SDS011;51878;55.748;48.742;2022-09-03T19:58:23;5.18;;;1.75;;
65279;SDS011;51878;55.748;48.742;2022-09-03T20:01:16;1.70;;;1.58;;
65279;SDS011;51878;55.748;48.742;2022-09-03T20:04:09;2.35;;;1.65;;
65279;SDS011;51878;55.748;48.742;2022-09-03T20:07:08;5.07;;;1.70;;
65279;SDS011;51878;55.748;48.742;2022-09-03T20:09:54;2.92;;;1.70;;
65279;SDS011;51878;55.748;48.742;2022-09-03T20:12:47;3.63;;;1.40;;
65279;SDS011;51878;55.748;48.742;2022-09-03T20:15:58;3.05;;;1.50;;
65279;SDS011;51878;55.748;48.742;2022-09-03T20:21:39;2.28;;;1.55;;
65279;SDS011;51878;55.748;48.742;2022-09-03T20:30:05;1.80;;;1.60;;
65279;SDS011;51878;55.748;48.742;2022-09-03T20:32:53;2.60;;;1.65;;
65279;SDS011;51878;55.748;48.742;2022-09-03T20:49:20;5.32;;;1.60;;
65279;SDS011;51878;55.748;48.742;2022-09-03T20:51:58;2.20;;;1.40;;
65279;SDS011;51878;55.748;48.742;2022-09-03T20:54:36;1.83;;;1.60;;
65279;SDS011;51878;55.748;48.742;2022-09-03T20:57:33;2.38;;;1.58;;
65279;SDS011;51878;55.748;48.742;2022-09-03T21:00:12;1.80;;;1.45;;
65279;SDS011;51878;55.748;48.742;2022-09-03T21:02:48;2.45;;;1.60;;
65279;SDS011;51878;55.748;48.742;2022-09-03T21:11:20;2.30;;;1.50;;
65279;SDS011;51878;55.748;48.742;2022-09-03T21:25:17;3.40;;;1.90;;
65279;SDS011;51878;55.748;48.742;2022-09-03T21:27:58;2.00;;;1.50;;
65279;SDS011;51878;55.748;48.742;2022-09-03T21:30:28;1.95;;;1.50;;
65279;SDS011;51878;55.748;48.742;2022-09-03T21:32:59;2.85;;;1.95;;
65279;SDS011;51878;55.748;48.742;2022-09-03T21:35:50;4.40;;;1.95;;
65279;SDS011;51878;55.748;48.742;2022-09-03T21:38:24;2.42;;;1.73;;
65279;SDS011;51878;55.748;48.742;2022-09-03T21:40:56;2.90;;;1.88;;
65279;SDS011;51878;55.748;48.742;2022-09-03T21:43:59;1.98;;;1.77;;
65279;SDS011;51878;55.748;48.742;2022-09-03T21:46:29;3.13;;;1.60;;
65279;SDS011;51878;55.748;48.742;2022-09-03T21:49:02;1.93;;;1.57;;
65279;SDS011;51878;55.748;48.742;2022-09-03T22:04:49;2.63;;;1.63;;
65279;SDS011;51878;55.748;48.742;2022-09-03T22:10:20;3.05;;;1.85;;
65279;SDS011;51878;55.748;48.742;2022-09-03T22:15:56;4.50;;;1.90;;
65279;SDS011;51878;55.748;48.742;2022-09-03T22:18:39;4.30;;;1.88;;
65279;SDS011;51878;55.748;48.742;2022-09-03T22:21:11;5.05;;;2.03;;
65279;SDS011;51878;55.748;48.742;2022-09-03T22:26:47;3.20;;;1.77;;